Lyman, Maine
Current Conditions -  °F | °C
As of 7:15 AM on Sunday 25 Jan 2015 (Local Time) from KSFM Reporting Station
Scattered Clouds Scattered Clouds  
Wind Chill: 23°   Ceiling: Unl
Heat Index: 28°   Visibility: 10mi
Dew Point: 18°   Wind: 5mph
Humidity: 64%   Direction: 210°SSW
Pressure: 29.42"   Gusts: NA
Location:  43.4908°N, 70.7071°W
Report Text: KSFM 251215Z AUTO 21004KT 10SM SCT043 M02/M08 A2942 RMK AO1
Loading
Personal Weather Stations






























Interactive Weather Map New forecast layout! Learn more

10-Day Weather Forecast

Advertisements
Track Severe Weather on mobile